Observations for BRIZE NORTON RA, United Kingdom (EGVN)

EGVN 260450Z 24001KT 2000 0900S PRFG FEW002 14/13 Q1018 TEMPO 0300 FG SCT001 RMK AMB TEMPO RED  
EGVN 260420Z 24001KT 4000 2000S MIFG HZ SKC 14/13 Q1018 TEMPO 0400 FG BKN001
EGVN 260420Z 24001KT 4000 2000S MIFG HZ SKC 14/13 Q1018 TEMPO 0400 FG BKN001 RMK YLO2 TEMPO RED
EGVN 260350Z 24001KT 4000 HZ SKC 14/13 Q1018 TEMPO 2000 BR SCT003   
EGVN 260350Z 24001KT 4000 HZ SKC 14/13 Q1018 TEMPO 2000 BR SCT003 RMK GRN TEMPOYLO2
EGVN 260250Z 27001KT 7000 HZ SKC 15/14 Q1018 NOSIG  
EGVN 260250Z 27001KT 7000 HZ SKC 15/14 Q1018 NOSIG RMK WHT WHT
EGVN 260150Z 28001KT CAVOK 15/14 Q1018 BECMG 6000 HZ
EGVN 260150Z 28001KT CAVOK 15/14 Q1018 BECMG 6000 HZ RMK BLU BECMG WHT
EGVN 260120Z 28001KT CAVOK 16/14 Q1018 BECMG 6000 HZ
EGVN 260120Z 28001KT CAVOK 16/14 Q1018 BECMG 6000 HZ RMK BLU BECMG WHT
EGVN 260050Z 31001KT CAVOK 17/15 Q1018 BECMG 6000 HZ
EGVN 260050Z 31001KT CAVOK 17/15 Q1018 BECMG 6000 HZ RMK BLU BECMG WHT
EGVN 260020Z 25001KT CAVOK 17/15 Q1019 NOSIG
EGVN 260020Z 25001KT CAVOK 17/15 Q1019 NOSIG RMK BLU BLU
EGVN 252350Z 26002KT CAVOK 18/15 Q1019 NOSIG
EGVN 252350Z 26002KT CAVOK 18/15 Q1019 NOSIG RMK BLU BLU
EGVN 252320Z 26004KT CAVOK 18/16 Q1019 NOSIG
EGVN 252320Z 26004KT CAVOK 18/16 Q1019 NOSIG RMK BLU BLU
EGVN 252250Z 26004KT CAVOK 19/16 Q1019 NOSIG
EGVN 252250Z 26004KT CAVOK 19/16 Q1019 NOSIG RMK BLU BLU
EGVN 252220Z 24003KT CAVOK 19/16 Q1019 NOSIG
EGVN 252220Z 24003KT CAVOK 19/16 Q1019 NOSIG RMK BLU BLU
EGVN 252150Z 26002KT CAVOK 20/16 Q1019 NOSIG
EGVN 252150Z 26002KT CAVOK 20/16 Q1019 NOSIG RMK BLU BLU
EGVN 252120Z 25003KT CAVOK 21/16 Q1018 NOSIG
EGVN 252120Z 25003KT CAVOK 21/16 Q1018 NOSIG RMK BLU BLU
EGVN 252050Z 22004KT CAVOK 22/16 Q1018 NOSIG
EGVN 252050Z 22004KT CAVOK 22/16 Q1018 NOSIG RMK BLU BLU
EGVN 252020Z 23003KT CAVOK 23/16 Q1018 NOSIG
EGVN 252020Z 23003KT CAVOK 23/16 Q1018 NOSIG RMK BLU BLU
EGVN 251950Z 22004KT CAVOK 24/13 Q1018 NOSIG
EGVN 251950Z 22004KT CAVOK 24/13 Q1018 NOSIG RMK BLU BLU
EGVN 251920Z 17003KT CAVOK 26/12 Q1018 NOSIG
EGVN 251920Z 17003KT CAVOK 26/12 Q1018 NOSIG RMK BLU BLU
EGVN 251850Z 18002KT CAVOK 27/12 Q1018 NOSIG
EGVN 251850Z 18002KT CAVOK 27/12 Q1018 NOSIG RMK BLU BLU
EGVN 251750Z 20006KT CAVOK 29/11 Q1017 NOSIG
EGVN 251750Z 20006KT CAVOK 29/11 Q1017 NOSIG RMK BLU BLU
EGVN 251720Z 19007KT CAVOK 30/12 Q1017 NOSIG
EGVN 251720Z 19007KT CAVOK 30/12 Q1017 NOSIG RMK BLU BLU
EGVN 251650Z 20007KT CAVOK 30/12 Q1017 NOSIG
EGVN 251650Z 20007KT CAVOK 30/12 Q1017 NOSIG RMK BLU BLU
EGVN 251620Z 21009KT CAVOK 30/11 Q1017 NOSIG
EGVN 251620Z 21009KT CAVOK 30/11 Q1017 NOSIG RMK BLU BLU
EGVN 251550Z 21009KT CAVOK 31/11 Q1017 NOSIG
EGVN 251550Z 21009KT CAVOK 31/11 Q1017 NOSIG RMK BLU BLU
EGVN 251520Z 20008KT CAVOK 31/11 Q1017 NOSIG
EGVN 251520Z 20008KT CAVOK 31/11 Q1017 NOSIG RMK BLU BLU
EGVN 251450Z 20009KT CAVOK 31/11 Q1017 NOSIG
EGVN 251450Z 20009KT CAVOK 31/11 Q1017 NOSIG RMK BLU BLU
EGVN 251420Z 19009KT CAVOK 31/12 Q1017 NOSIG
EGVN 251420Z 19009KT CAVOK 31/12 Q1017 NOSIG RMK BLU BLU
EGVN 251350Z 20009KT CAVOK 31/12 Q1017 NOSIG
EGVN 251350Z 20009KT CAVOK 31/12 Q1017 NOSIG RMK BLU BLU
EGVN 251322Z 17009KT CAVOK 31/12 Q1017 NOSIG
EGVN 251322Z 17009KT CAVOK 31/12 Q1017 NOSIG RMK BLU BLU
EGVN 251250Z 20008G18KT CAVOK 30/14 Q1017 NOSIG RMK BLU BLU 
EGVN 251150Z 21004KT CAVOK 29/13 Q1017 NOSIG
EGVN 251150Z 21004KT CAVOK 29/13 Q1017 NOSIG RMK BLU BLU
EGVN 251120Z 21007KT CAVOK 29/14 Q1017 NOSIG
EGVN 251120Z 21007KT CAVOK 29/14 Q1017 NOSIG RMK BLU BLU
EGVN 251050Z 12002KT CAVOK 27/14 Q1017 NOSIG
EGVN 251050Z 12002KT CAVOK 27/14 Q1017 NOSIG RMK BLU BLU
EGVN 251020Z 12003KT CAVOK 27/15 Q1017 NOSIG
EGVN 251020Z 12003KT CAVOK 27/15 Q1017 NOSIG RMK BLU BLU
EGVN 250950Z 15004KT CAVOK 26/15 Q1017 NOSIG
EGVN 250950Z 15004KT CAVOK 26/15 Q1017 NOSIG RMK BLU BLU
EGVN 250920Z 14003KT CAVOK 24/15 Q1017 NOSIG
EGVN 250920Z 14003KT CAVOK 24/15 Q1017 NOSIG RMK BLU BLU
EGVN 250850Z 09003KT CAVOK 23/14 Q1017 NOSIG
EGVN 250850Z 09003KT CAVOK 23/14 Q1017 NOSIG RMK BLU BLU
EGVN 250820Z 10005KT CAVOK 22/14 Q1017 NOSIG
EGVN 250820Z 10005KT CAVOK 22/14 Q1017 NOSIG RMK BLU BLU
EGVN 250750Z 10006KT CAVOK 20/14 Q1017 NOSIG
EGVN 250750Z 10006KT CAVOK 20/14 Q1017 NOSIG RMK BLU BLU
EGVN 250720Z 09004KT CAVOK 19/14 Q1017 NOSIG
EGVN 250720Z 09004KT CAVOK 19/14 Q1017 NOSIG RMK BLU BLU
EGVN 250650Z 07006KT CAVOK 17/13 Q1017 NOSIG
EGVN 250650Z 07006KT CAVOK 17/13 Q1017 NOSIG RMK BLU BLU
EGVN 250550Z 06006KT CAVOK 16/12 Q1016 NOSIG
EGVN 250550Z 06006KT CAVOK 16/12 Q1016 NOSIG RMK BLU BLU
EGVN 250450Z 08002KT CAVOK 16/11 Q1016 NOSIG
EGVN 250450Z 08002KT CAVOK 16/11 Q1016 NOSIG RMK BLU BLU